sensor_id;sensor_type;location;lat;lon;timestamp;P1;durP1;ratioP1;P2;durP2;ratioP2
22737;SDS011;11536;50.860;4.286;2023-05-10T00:00:52;9.48;;;3.00;;
22737;SDS011;11536;50.860;4.286;2023-05-10T00:03:18;9.48;;;3.13;;
22737;SDS011;11536;50.860;4.286;2023-05-10T00:05:44;7.82;;;3.28;;
22737;SDS011;11536;50.860;4.286;2023-05-10T00:08:09;10.63;;;3.42;;
22737;SDS011;11536;50.860;4.286;2023-05-10T00:10:35;8.38;;;3.83;;
22737;SDS011;11536;50.860;4.286;2023-05-10T00:13:02;9.00;;;3.78;;
22737;SDS011;11536;50.860;4.286;2023-05-10T00:15:28;11.82;;;3.33;;
22737;SDS011;11536;50.860;4.286;2023-05-10T00:17:55;9.27;;;3.10;;
22737;SDS011;11536;50.860;4.286;2023-05-10T00:20:21;10.05;;;3.38;;
22737;SDS011;11536;50.860;4.286;2023-05-10T00:22:46;7.15;;;3.22;;
22737;SDS011;11536;50.860;4.286;2023-05-10T00:25:12;8.82;;;3.35;;
22737;SDS011;11536;50.860;4.286;2023-05-10T00:27:38;7.63;;;3.55;;
22737;SDS011;11536;50.860;4.286;2023-05-10T00:30:03;9.23;;;3.60;;
22737;SDS011;11536;50.860;4.286;2023-05-10T00:32:30;8.38;;;3.50;;
22737;SDS011;11536;50.860;4.286;2023-05-10T00:34:55;10.32;;;3.90;;
22737;SDS011;11536;50.860;4.286;2023-05-10T00:37:21;7.50;;;3.53;;
22737;SDS011;11536;50.860;4.286;2023-05-10T00:39:46;9.82;;;3.45;;
22737;SDS011;11536;50.860;4.286;2023-05-10T00:42:12;8.02;;;3.47;;
22737;SDS011;11536;50.860;4.286;2023-05-10T00:44:38;9.85;;;3.90;;
22737;SDS011;11536;50.860;4.286;2023-05-10T00:47:03;9.50;;;3.92;;
22737;SDS011;11536;50.860;4.286;2023-05-10T00:49:29;6.78;;;3.40;;
22737;SDS011;11536;50.860;4.286;2023-05-10T00:51:55;9.70;;;3.60;;
22737;SDS011;11536;50.860;4.286;2023-05-10T00:54:20;11.10;;;3.58;;
22737;SDS011;11536;50.860;4.286;2023-05-10T00:56:46;7.20;;;3.05;;
22737;SDS011;11536;50.860;4.286;2023-05-10T00:59:14;9.93;;;3.88;;
22737;SDS011;11536;50.860;4.286;2023-05-10T01:01:42;9.18;;;3.47;;
22737;SDS011;11536;50.860;4.286;2023-05-10T01:04:08;9.55;;;3.90;;
22737;SDS011;11536;50.860;4.286;2023-05-10T01:06:36;11.63;;;3.78;;
22737;SDS011;11536;50.860;4.286;2023-05-10T01:09:01;8.43;;;3.60;;
22737;SDS011;11536;50.860;4.286;2023-05-10T01:11:27;8.05;;;3.65;;
22737;SDS011;11536;50.860;4.286;2023-05-10T01:13:55;9.43;;;3.88;;
22737;SDS011;11536;50.860;4.286;2023-05-10T01:16:22;8.80;;;4.15;;
22737;SDS011;11536;50.860;4.286;2023-05-10T01:18:48;9.38;;;3.63;;
22737;SDS011;11536;50.860;4.286;2023-05-10T01:24:17;9.15;;;4.22;;
22737;SDS011;11536;50.860;4.286;2023-05-10T01:32:16;10.75;;;4.30;;
22737;SDS011;11536;50.860;4.286;2023-05-10T01:34:51;9.23;;;4.03;;
22737;SDS011;11536;50.860;4.286;2023-05-10T01:37:29;13.05;;;4.30;;
22737;SDS011;11536;50.860;4.286;2023-05-10T01:42:40;9.00;;;4.28;;
22737;SDS011;11536;50.860;4.286;2023-05-10T01:45:20;9.48;;;4.57;;
22737;SDS011;11536;50.860;4.286;2023-05-10T01:47:58;12.32;;;4.75;;
22737;SDS011;11536;50.860;4.286;2023-05-10T01:50:37;15.50;;;4.65;;
22737;SDS011;11536;50.860;4.286;2023-05-10T01:53:08;11.35;;;4.68;;
22737;SDS011;11536;50.860;4.286;2023-05-10T01:55:54;10.85;;;4.65;;
22737;SDS011;11536;50.860;4.286;2023-05-10T01:58:22;11.55;;;4.35;;
22737;SDS011;11536;50.860;4.286;2023-05-10T02:00:55;10.70;;;4.53;;
22737;SDS011;11536;50.860;4.286;2023-05-10T02:03:22;12.50;;;5.07;;
22737;SDS011;11536;50.860;4.286;2023-05-10T02:05:50;10.45;;;4.35;;
22737;SDS011;11536;50.860;4.286;2023-05-10T02:08:18;12.48;;;4.72;;
22737;SDS011;11536;50.860;4.286;2023-05-10T02:10:45;9.98;;;4.47;;
22737;SDS011;11536;50.860;4.286;2023-05-10T02:13:12;9.95;;;4.35;;
22737;SDS011;11536;50.860;4.286;2023-05-10T02:15:40;9.80;;;4.63;;
22737;SDS011;11536;50.860;4.286;2023-05-10T02:18:07;10.70;;;4.85;;
22737;SDS011;11536;50.860;4.286;2023-05-10T02:20:35;10.93;;;4.97;;
22737;SDS011;11536;50.860;4.286;2023-05-10T02:23:02;10.43;;;5.00;;
22737;SDS011;11536;50.860;4.286;2023-05-10T02:25:29;12.68;;;5.18;;
22737;SDS011;11536;50.860;4.286;2023-05-10T02:27:57;11.55;;;4.78;;
22737;SDS011;11536;50.860;4.286;2023-05-10T02:30:26;13.23;;;4.50;;
22737;SDS011;11536;50.860;4.286;2023-05-10T02:32:53;10.80;;;4.70;;
22737;SDS011;11536;50.860;4.286;2023-05-10T02:35:21;12.70;;;4.70;;
22737;SDS011;11536;50.860;4.286;2023-05-10T02:37:48;9.68;;;4.13;;
22737;SDS011;11536;50.860;4.286;2023-05-10T02:40:15;9.90;;;4.40;;
22737;SDS011;11536;50.860;4.286;2023-05-10T02:42:42;11.23;;;4.72;;
22737;SDS011;11536;50.860;4.286;2023-05-10T02:45:11;9.90;;;4.10;;
22737;SDS011;11536;50.860;4.286;2023-05-10T02:47:40;11.95;;;4.78;;
22737;SDS011;11536;50.860;4.286;2023-05-10T02:50:06;10.73;;;4.28;;
22737;SDS011;11536;50.860;4.286;2023-05-10T02:52:50;12.27;;;4.18;;
22737;SDS011;11536;50.860;4.286;2023-05-10T02:55:19;11.20;;;5.13;;
22737;SDS011;11536;50.860;4.286;2023-05-10T02:58:00;9.45;;;4.55;;
22737;SDS011;11536;50.860;4.286;2023-05-10T03:00:26;9.13;;;4.07;;
22737;SDS011;11536;50.860;4.286;2023-05-10T03:02:53;9.98;;;4.47;;
22737;SDS011;11536;50.860;4.286;2023-05-10T03:05:19;9.90;;;4.25;;
22737;SDS011;11536;50.860;4.286;2023-05-10T03:07:45;9.32;;;4.18;;
22737;SDS011;11536;50.860;4.286;2023-05-10T03:10:12;10.45;;;4.47;;
22737;SDS011;11536;50.860;4.286;2023-05-10T03:18:21;14.10;;;5.45;;
22737;SDS011;11536;50.860;4.286;2023-05-10T03:20:49;10.77;;;4.40;;
22737;SDS011;11536;50.860;4.286;2023-05-10T03:25:54;10.45;;;5.03;;
22737;SDS011;11536;50.860;4.286;2023-05-10T03:28:21;13.70;;;5.95;;
22737;SDS011;11536;50.860;4.286;2023-05-10T03:30:49;14.43;;;4.93;;
22737;SDS011;11536;50.860;4.286;2023-05-10T03:33:18;16.50;;;5.80;;
22737;SDS011;11536;50.860;4.286;2023-05-10T03:35:43;13.07;;;5.75;;
22737;SDS011;11536;50.860;4.286;2023-05-10T03:38:10;12.77;;;6.20;;
22737;SDS011;11536;50.860;4.286;2023-05-10T03:40:37;14.57;;;6.50;;
22737;SDS011;11536;50.860;4.286;2023-05-10T03:43:03;17.00;;;6.35;;
22737;SDS011;11536;50.860;4.286;2023-05-10T03:45:29;13.00;;;6.13;;
22737;SDS011;11536;50.860;4.286;2023-05-10T03:47:55;12.20;;;5.43;;
22737;SDS011;11536;50.860;4.286;2023-05-10T03:50:22;13.75;;;6.10;;
22737;SDS011;11536;50.860;4.286;2023-05-10T03:52:48;13.35;;;5.85;;
22737;SDS011;11536;50.860;4.286;2023-05-10T03:55:14;13.15;;;5.82;;
22737;SDS011;11536;50.860;4.286;2023-05-10T03:57:42;14.13;;;6.03;;
22737;SDS011;11536;50.860;4.286;2023-05-10T04:00:08;13.88;;;5.53;;
22737;SDS011;11536;50.860;4.286;2023-05-10T04:02:34;13.70;;;6.28;;
22737;SDS011;11536;50.860;4.286;2023-05-10T04:05:00;13.93;;;6.35;;
22737;SDS011;11536;50.860;4.286;2023-05-10T04:07:26;13.40;;;5.90;;
22737;SDS011;11536;50.860;4.286;2023-05-10T04:09:52;16.30;;;6.60;;
22737;SDS011;11536;50.860;4.286;2023-05-10T04:12:17;15.57;;;7.00;;
22737;SDS011;11536;50.860;4.286;2023-05-10T04:14:43;16.27;;;6.82;;
22737;SDS011;11536;50.860;4.286;2023-05-10T04:17:09;16.05;;;7.28;;
22737;SDS011;11536;50.860;4.286;2023-05-10T04:19:35;15.32;;;6.38;;
22737;SDS011;11536;50.860;4.286;2023-05-10T04:22:01;14.32;;;6.70;;
22737;SDS011;11536;50.860;4.286;2023-05-10T04:24:28;15.88;;;7.05;;
22737;SDS011;11536;50.860;4.286;2023-05-10T04:26:53;16.17;;;7.05;;
22737;SDS011;11536;50.860;4.286;2023-05-10T04:29:19;15.80;;;6.97;;
22737;SDS011;11536;50.860;4.286;2023-05-10T04:31:45;16.75;;;7.10;;
22737;SDS011;11536;50.860;4.286;2023-05-10T04:34:11;14.48;;;6.35;;
22737;SDS011;11536;50.860;4.286;2023-05-10T04:36:37;13.57;;;6.32;;
22737;SDS011;11536;50.860;4.286;2023-05-10T04:39:03;14.77;;;6.38;;
22737;SDS011;11536;50.860;4.286;2023-05-10T04:41:28;15.55;;;7.47;;
22737;SDS011;11536;50.860;4.286;2023-05-10T04:43:54;16.85;;;8.00;;
22737;SDS011;11536;50.860;4.286;2023-05-10T04:46:20;14.02;;;7.13;;
22737;SDS011;11536;50.860;4.286;2023-05-10T04:48:46;15.80;;;7.03;;
22737;SDS011;11536;50.860;4.286;2023-05-10T04:51:11;16.40;;;7.47;;
22737;SDS011;11536;50.860;4.286;2023-05-10T04:53:37;17.27;;;7.97;;
22737;SDS011;11536;50.860;4.286;2023-05-10T04:56:03;16.48;;;7.85;;
22737;SDS011;11536;50.860;4.286;2023-05-10T04:58:29;15.00;;;6.75;;
22737;SDS011;11536;50.860;4.286;2023-05-10T05:00:54;14.50;;;6.57;;
22737;SDS011;11536;50.860;4.286;2023-05-10T05:03:20;14.82;;;6.90;;
22737;SDS011;11536;50.860;4.286;2023-05-10T05:05:47;16.45;;;7.40;;
22737;SDS011;11536;50.860;4.286;2023-05-10T05:08:13;15.40;;;7.28;;
22737;SDS011;11536;50.860;4.286;2023-05-10T05:10:39;14.15;;;6.70;;
22737;SDS011;11536;50.860;4.286;2023-05-10T05:13:05;15.77;;;7.28;;
22737;SDS011;11536;50.860;4.286;2023-05-10T05:15:31;10.98;;;5.32;;
22737;SDS011;11536;50.860;4.286;2023-05-10T05:17:56;13.15;;;5.18;;
22737;SDS011;11536;50.860;4.286;2023-05-10T05:20:22;10.40;;;5.32;;
22737;SDS011;11536;50.860;4.286;2023-05-10T05:22:48;12.52;;;5.55;;
22737;SDS011;11536;50.860;4.286;2023-05-10T05:25:14;10.90;;;5.05;;
22737;SDS011;11536;50.860;4.286;2023-05-10T05:27:41;12.02;;;4.82;;
22737;SDS011;11536;50.860;4.286;2023-05-10T05:30:07;11.63;;;3.92;;
22737;SDS011;11536;50.860;4.286;2023-05-10T05:32:33;12.27;;;4.47;;
22737;SDS011;11536;50.860;4.286;2023-05-10T05:34:59;9.85;;;4.72;;
22737;SDS011;11536;50.860;4.286;2023-05-10T05:37:26;11.88;;;4.05;;
22737;SDS011;11536;50.860;4.286;2023-05-10T05:39:51;10.10;;;4.72;;
22737;SDS011;11536;50.860;4.286;2023-05-10T05:42:17;10.50;;;4.47;;
22737;SDS011;11536;50.860;4.286;2023-05-10T05:44:43;9.52;;;3.95;;
22737;SDS011;11536;50.860;4.286;2023-05-10T05:47:09;11.93;;;4.70;;
22737;SDS011;11536;50.860;4.286;2023-05-10T05:49:35;10.23;;;4.72;;
22737;SDS011;11536;50.860;4.286;2023-05-10T05:52:02;11.70;;;5.10;;
22737;SDS011;11536;50.860;4.286;2023-05-10T05:54:28;11.27;;;4.72;;
22737;SDS011;11536;50.860;4.286;2023-05-10T05:56:58;11.80;;;5.13;;
22737;SDS011;11536;50.860;4.286;2023-05-10T05:59:24;12.52;;;5.00;;
22737;SDS011;11536;50.860;4.286;2023-05-10T06:01:50;11.77;;;5.25;;
22737;SDS011;11536;50.860;4.286;2023-05-10T06:04:16;10.85;;;5.20;;
22737;SDS011;11536;50.860;4.286;2023-05-10T06:06:42;12.57;;;5.82;;
22737;SDS011;11536;50.860;4.286;2023-05-10T06:09:08;13.15;;;6.03;;
22737;SDS011;11536;50.860;4.286;2023-05-10T06:11:34;15.15;;;6.43;;
22737;SDS011;11536;50.860;4.286;2023-05-10T06:14:00;15.23;;;6.43;;
22737;SDS011;11536;50.860;4.286;2023-05-10T06:16:26;14.98;;;7.13;;
22737;SDS011;11536;50.860;4.286;2023-05-10T06:18:52;15.88;;;6.80;;
22737;SDS011;11536;50.860;4.286;2023-05-10T06:21:18;14.65;;;7.22;;
22737;SDS011;11536;50.860;4.286;2023-05-10T06:23:44;14.32;;;6.32;;
22737;SDS011;11536;50.860;4.286;2023-05-10T06:26:10;14.80;;;7.00;;
22737;SDS011;11536;50.860;4.286;2023-05-10T06:28:36;14.25;;;7.10;;
22737;SDS011;11536;50.860;4.286;2023-05-10T06:31:03;15.35;;;6.25;;
22737;SDS011;11536;50.860;4.286;2023-05-10T06:33:29;16.40;;;6.63;;
22737;SDS011;11536;50.860;4.286;2023-05-10T06:35:56;17.10;;;6.60;;
22737;SDS011;11536;50.860;4.286;2023-05-10T06:38:22;17.92;;;7.55;;
22737;SDS011;11536;50.860;4.286;2023-05-10T06:40:48;19.90;;;8.60;;
22737;SDS011;11536;50.860;4.286;2023-05-10T06:43:13;19.27;;;7.80;;
22737;SDS011;11536;50.860;4.286;2023-05-10T06:45:39;14.57;;;7.30;;
22737;SDS011;11536;50.860;4.286;2023-05-10T06:48:06;17.05;;;7.03;;
22737;SDS011;11536;50.860;4.286;2023-05-10T06:50:31;18.65;;;7.78;;
22737;SDS011;11536;50.860;4.286;2023-05-10T06:52:58;15.27;;;6.88;;
22737;SDS011;11536;50.860;4.286;2023-05-10T06:55:24;15.05;;;6.40;;
22737;SDS011;11536;50.860;4.286;2023-05-10T06:57:49;14.52;;;6.43;;
22737;SDS011;11536;50.860;4.286;2023-05-10T07:00:15;15.07;;;6.10;;
22737;SDS011;11536;50.860;4.286;2023-05-10T07:02:42;17.05;;;6.38;;
22737;SDS011;11536;50.860;4.286;2023-05-10T07:05:08;14.70;;;6.25;;
22737;SDS011;11536;50.860;4.286;2023-05-10T07:07:34;14.80;;;6.80;;
22737;SDS011;11536;50.860;4.286;2023-05-10T07:10:00;18.85;;;6.80;;
22737;SDS011;11536;50.860;4.286;2023-05-10T07:12:25;17.23;;;6.72;;
22737;SDS011;11536;50.860;4.286;2023-05-10T07:14:51;15.90;;;6.35;;
22737;SDS011;11536;50.860;4.286;2023-05-10T07:17:17;18.58;;;6.80;;
22737;SDS011;11536;50.860;4.286;2023-05-10T07:19:43;14.10;;;6.50;;
22737;SDS011;11536;50.860;4.286;2023-05-10T07:22:09;13.38;;;6.05;;
22737;SDS011;11536;50.860;4.286;2023-05-10T07:24:34;15.23;;;5.72;;
22737;SDS011;11536;50.860;4.286;2023-05-10T07:27:00;15.23;;;6.05;;
22737;SDS011;11536;50.860;4.286;2023-05-10T07:29:26;15.65;;;5.95;;
22737;SDS011;11536;50.860;4.286;2023-05-10T07:31:51;18.10;;;5.95;;
22737;SDS011;11536;50.860;4.286;2023-05-10T07:34:17;16.75;;;6.00;;
22737;SDS011;11536;50.860;4.286;2023-05-10T07:36:43;9.65;;;4.90;;
22737;SDS011;11536;50.860;4.286;2023-05-10T07:39:09;14.52;;;5.30;;
22737;SDS011;11536;50.860;4.286;2023-05-10T07:41:34;13.40;;;4.65;;
22737;SDS011;11536;50.860;4.286;2023-05-10T07:44:00;10.57;;;4.53;;
22737;SDS011;11536;50.860;4.286;2023-05-10T07:46:26;10.60;;;4.25;;
22737;SDS011;11536;50.860;4.286;2023-05-10T07:48:51;11.55;;;4.40;;
22737;SDS011;11536;50.860;4.286;2023-05-10T07:51:17;12.63;;;5.13;;
22737;SDS011;11536;50.860;4.286;2023-05-10T07:53:42;10.77;;;4.15;;
22737;SDS011;11536;50.860;4.286;2023-05-10T07:58:51;12.40;;;4.22;;
22737;SDS011;11536;50.860;4.286;2023-05-10T08:01:17;13.02;;;4.60;;
22737;SDS011;11536;50.860;4.286;2023-05-10T08:03:43;12.73;;;3.95;;
22737;SDS011;11536;50.860;4.286;2023-05-10T08:06:08;9.48;;;4.07;;
22737;SDS011;11536;50.860;4.286;2023-05-10T08:08:34;11.07;;;4.03;;
22737;SDS011;11536;50.860;4.286;2023-05-10T08:10:59;12.50;;;4.35;;
22737;SDS011;11536;50.860;4.286;2023-05-10T08:13:25;11.13;;;3.45;;
22737;SDS011;11536;50.860;4.286;2023-05-10T08:15:51;10.55;;;3.78;;
22737;SDS011;11536;50.860;4.286;2023-05-10T08:18:18;8.63;;;3.60;;
22737;SDS011;11536;50.860;4.286;2023-05-10T08:20:44;9.13;;;3.70;;
22737;SDS011;11536;50.860;4.286;2023-05-10T08:23:10;9.07;;;3.20;;
22737;SDS011;11536;50.860;4.286;2023-05-10T08:25:37;5.95;;;2.60;;
22737;SDS011;11536;50.860;4.286;2023-05-10T08:28:03;9.45;;;3.00;;
22737;SDS011;11536;50.860;4.286;2023-05-10T08:30:29;9.73;;;3.20;;
22737;SDS011;11536;50.860;4.286;2023-05-10T08:32:55;7.28;;;3.00;;
22737;SDS011;11536;50.860;4.286;2023-05-10T08:35:20;8.65;;;2.90;;
22737;SDS011;11536;50.860;4.286;2023-05-10T08:37:46;10.73;;;3.63;;
22737;SDS011;11536;50.860;4.286;2023-05-10T08:40:11;8.80;;;3.05;;
22737;SDS011;11536;50.860;4.286;2023-05-10T08:42:39;10.05;;;3.20;;
22737;SDS011;11536;50.860;4.286;2023-05-10T08:45:07;8.65;;;3.17;;
22737;SDS011;11536;50.860;4.286;2023-05-10T08:47:35;6.78;;;2.83;;
22737;SDS011;11536;50.860;4.286;2023-05-10T08:50:02;12.70;;;3.90;;
22737;SDS011;11536;50.860;4.286;2023-05-10T08:52:29;9.25;;;3.47;;
22737;SDS011;11536;50.860;4.286;2023-05-10T08:54:55;7.50;;;3.05;;
22737;SDS011;11536;50.860;4.286;2023-05-10T08:57:21;8.55;;;3.15;;
22737;SDS011;11536;50.860;4.286;2023-05-10T08:59:47;7.35;;;3.30;;
22737;SDS011;11536;50.860;4.286;2023-05-10T09:02:13;8.00;;;2.80;;
22737;SDS011;11536;50.860;4.286;2023-05-10T09:04:39;7.75;;;2.90;;
22737;SDS011;11536;50.860;4.286;2023-05-10T09:07:05;8.45;;;2.97;;
22737;SDS011;11536;50.860;4.286;2023-05-10T09:09:32;9.52;;;3.72;;
22737;SDS011;11536;50.860;4.286;2023-05-10T09:11:58;7.75;;;3.20;;
22737;SDS011;11536;50.860;4.286;2023-05-10T09:14:24;8.60;;;2.75;;
22737;SDS011;11536;50.860;4.286;2023-05-10T09:16:50;10.60;;;3.88;;
22737;SDS011;11536;50.860;4.286;2023-05-10T09:19:16;9.10;;;3.22;;
22737;SDS011;11536;50.860;4.286;2023-05-10T09:21:42;8.88;;;3.15;;
22737;SDS011;11536;50.860;4.286;2023-05-10T09:24:08;8.57;;;3.50;;
22737;SDS011;11536;50.860;4.286;2023-05-10T09:26:34;9.50;;;3.08;;
22737;SDS011;11536;50.860;4.286;2023-05-10T09:29:01;9.13;;;3.03;;
22737;SDS011;11536;50.860;4.286;2023-05-10T09:31:47;7.72;;;3.28;;
22737;SDS011;11536;50.860;4.286;2023-05-10T09:34:19;8.88;;;2.92;;
22737;SDS011;11536;50.860;4.286;2023-05-10T09:36:56;7.32;;;2.85;;
22737;SDS011;11536;50.860;4.286;2023-05-10T09:39:32;7.43;;;3.22;;
22737;SDS011;11536;50.860;4.286;2023-05-10T09:42:02;8.93;;;3.28;;
22737;SDS011;11536;50.860;4.286;2023-05-10T09:44:35;8.98;;;3.50;;
22737;SDS011;11536;50.860;4.286;2023-05-10T09:47:02;9.77;;;3.70;;
22737;SDS011;11536;50.860;4.286;2023-05-10T09:49:28;8.07;;;3.22;;
22737;SDS011;11536;50.860;4.286;2023-05-10T09:54:27;8.50;;;3.63;;
22737;SDS011;11536;50.860;4.286;2023-05-10T09:56:53;10.15;;;3.50;;
22737;SDS011;11536;50.860;4.286;2023-05-10T09:59:19;7.82;;;3.22;;
22737;SDS011;11536;50.860;4.286;2023-05-10T10:01:50;10.52;;;3.35;;
22737;SDS011;11536;50.860;4.286;2023-05-10T10:04:17;9.52;;;3.65;;
22737;SDS011;11536;50.860;4.286;2023-05-10T10:06:42;7.07;;;3.20;;
22737;SDS011;11536;50.860;4.286;2023-05-10T10:09:08;8.18;;;3.40;;
22737;SDS011;11536;50.860;4.286;2023-05-10T10:11:38;8.95;;;4.07;;
22737;SDS011;11536;50.860;4.286;2023-05-10T10:14:04;7.50;;;3.08;;
22737;SDS011;11536;50.860;4.286;2023-05-10T10:16:30;7.47;;;3.38;;
22737;SDS011;11536;50.860;4.286;2023-05-10T10:18:57;7.82;;;3.65;;
22737;SDS011;11536;50.860;4.286;2023-05-10T10:21:23;8.43;;;3.70;;
22737;SDS011;11536;50.860;4.286;2023-05-10T10:23:49;10.00;;;3.25;;
22737;SDS011;11536;50.860;4.286;2023-05-10T10:26:17;9.90;;;3.50;;
22737;SDS011;11536;50.860;4.286;2023-05-10T10:28:51;9.35;;;3.92;;
22737;SDS011;11536;50.860;4.286;2023-05-10T10:31:34;8.40;;;3.38;;
22737;SDS011;11536;50.860;4.286;2023-05-10T10:34:33;8.23;;;3.53;;
22737;SDS011;11536;50.860;4.286;2023-05-10T10:36:59;8.27;;;3.17;;
22737;SDS011;11536;50.860;4.286;2023-05-10T10:39:29;7.85;;;3.20;;
22737;SDS011;11536;50.860;4.286;2023-05-10T10:41:56;8.60;;;3.17;;
22737;SDS011;11536;50.860;4.286;2023-05-10T10:49:49;8.45;;;3.45;;
22737;SDS011;11536;50.860;4.286;2023-05-10T10:52:33;8.40;;;3.10;;
22737;SDS011;11536;50.860;4.286;2023-05-10T11:02:47;8.60;;;3.25;;
22737;SDS011;11536;50.860;4.286;2023-05-10T11:07:53;9.63;;;3.83;;
22737;SDS011;11536;50.860;4.286;2023-05-10T11:10:23;7.45;;;3.40;;
22737;SDS011;11536;50.860;4.286;2023-05-10T11:15:32;6.70;;;3.40;;
22737;SDS011;11536;50.860;4.286;2023-05-10T11:17:59;7.10;;;3.33;;
22737;SDS011;11536;50.860;4.286;2023-05-10T11:20:41;9.88;;;3.47;;
22737;SDS011;11536;50.860;4.286;2023-05-10T11:23:13;8.68;;;3.63;;
22737;SDS011;11536;50.860;4.286;2023-05-10T11:25:42;8.15;;;3.72;;
22737;SDS011;11536;50.860;4.286;2023-05-10T11:28:09;8.20;;;3.60;;
22737;SDS011;11536;50.860;4.286;2023-05-10T11:30:37;9.07;;;4.05;;
22737;SDS011;11536;50.860;4.286;2023-05-10T11:33:04;9.48;;;3.72;;
22737;SDS011;11536;50.860;4.286;2023-05-10T11:35:31;7.95;;;4.13;;
22737;SDS011;11536;50.860;4.286;2023-05-10T11:38:04;9.40;;;4.65;;
22737;SDS011;11536;50.860;4.286;2023-05-10T11:40:35;10.25;;;4.18;;
22737;SDS011;11536;50.860;4.286;2023-05-10T11:43:02;9.88;;;3.95;;
22737;SDS011;11536;50.860;4.286;2023-05-10T11:45:29;12.82;;;5.20;;
22737;SDS011;11536;50.860;4.286;2023-05-10T11:47:58;8.23;;;3.65;;
22737;SDS011;11536;50.860;4.286;2023-05-10T11:50:25;10.00;;;4.28;;
22737;SDS011;11536;50.860;4.286;2023-05-10T11:52:53;9.02;;;4.03;;
22737;SDS011;11536;50.860;4.286;2023-05-10T11:55:23;9.20;;;3.97;;
22737;SDS011;11536;50.860;4.286;2023-05-10T11:57:53;9.73;;;4.43;;
22737;SDS011;11536;50.860;4.286;2023-05-10T12:00:19;10.30;;;3.83;;
22737;SDS011;11536;50.860;4.286;2023-05-10T12:02:45;9.18;;;4.03;;
22737;SDS011;11536;50.860;4.286;2023-05-10T12:05:12;9.60;;;4.45;;
22737;SDS011;11536;50.860;4.286;2023-05-10T12:07:38;11.45;;;4.63;;
22737;SDS011;11536;50.860;4.286;2023-05-10T12:10:08;9.20;;;4.70;;
22737;SDS011;11536;50.860;4.286;2023-05-10T12:12:43;8.45;;;4.32;;
22737;SDS011;11536;50.860;4.286;2023-05-10T12:15:19;8.40;;;4.22;;
22737;SDS011;11536;50.860;4.286;2023-05-10T12:17:47;10.40;;;4.28;;
22737;SDS011;11536;50.860;4.286;2023-05-10T12:22:40;10.38;;;4.43;;
22737;SDS011;11536;50.860;4.286;2023-05-10T12:25:09;9.15;;;3.92;;
22737;SDS011;11536;50.860;4.286;2023-05-10T12:27:35;8.40;;;3.92;;
22737;SDS011;11536;50.860;4.286;2023-05-10T12:30:01;11.23;;;4.65;;
22737;SDS011;11536;50.860;4.286;2023-05-10T12:32:37;8.63;;;3.47;;
22737;SDS011;11536;50.860;4.286;2023-05-10T12:35:04;12.45;;;4.72;;
22737;SDS011;11536;50.860;4.286;2023-05-10T12:37:30;9.30;;;4.35;;
22737;SDS011;11536;50.860;4.286;2023-05-10T12:39:55;6.93;;;3.88;;
22737;SDS011;11536;50.860;4.286;2023-05-10T12:42:21;8.80;;;3.75;;
22737;SDS011;11536;50.860;4.286;2023-05-10T12:44:48;10.30;;;4.05;;
22737;SDS011;11536;50.860;4.286;2023-05-10T12:47:13;8.90;;;4.07;;
22737;SDS011;11536;50.860;4.286;2023-05-10T12:49:39;11.32;;;4.55;;
22737;SDS011;11536;50.860;4.286;2023-05-10T12:52:05;7.57;;;3.42;;
22737;SDS011;11536;50.860;4.286;2023-05-10T12:54:30;9.15;;;4.00;;
22737;SDS011;11536;50.860;4.286;2023-05-10T12:56:56;8.65;;;3.80;;
22737;SDS011;11536;50.860;4.286;2023-05-10T12:59:22;8.50;;;4.00;;
22737;SDS011;11536;50.860;4.286;2023-05-10T13:01:47;8.57;;;4.43;;
22737;SDS011;11536;50.860;4.286;2023-05-10T13:04:19;7.90;;;3.83;;
22737;SDS011;11536;50.860;4.286;2023-05-10T13:06:45;7.95;;;3.55;;
22737;SDS011;11536;50.860;4.286;2023-05-10T13:09:11;10.90;;;3.95;;
22737;SDS011;11536;50.860;4.286;2023-05-10T13:11:37;10.68;;;4.45;;
22737;SDS011;11536;50.860;4.286;2023-05-10T13:14:02;10.27;;;4.10;;
22737;SDS011;11536;50.860;4.286;2023-05-10T13:16:28;10.63;;;4.43;;
22737;SDS011;11536;50.860;4.286;2023-05-10T13:18:54;8.45;;;4.03;;
22737;SDS011;11536;50.860;4.286;2023-05-10T13:21:20;8.35;;;3.85;;
22737;SDS011;11536;50.860;4.286;2023-05-10T13:23:46;9.45;;;4.07;;
22737;SDS011;11536;50.860;4.286;2023-05-10T13:26:11;13.02;;;4.70;;
22737;SDS011;11536;50.860;4.286;2023-05-10T13:28:38;10.75;;;4.50;;
22737;SDS011;11536;50.860;4.286;2023-05-10T13:31:04;10.18;;;5.03;;
22737;SDS011;11536;50.860;4.286;2023-05-10T13:33:30;9.48;;;4.53;;
22737;SDS011;11536;50.860;4.286;2023-05-10T13:35:55;11.65;;;4.53;;
22737;SDS011;11536;50.860;4.286;2023-05-10T13:38:21;10.05;;;5.15;;
22737;SDS011;11536;50.860;4.286;2023-05-10T13:40:47;9.07;;;4.35;;
22737;SDS011;11536;50.860;4.286;2023-05-10T13:43:13;10.55;;;4.55;;
22737;SDS011;11536;50.860;4.286;2023-05-10T13:45:41;9.63;;;4.88;;
22737;SDS011;11536;50.860;4.286;2023-05-10T13:48:07;8.32;;;4.45;;
22737;SDS011;11536;50.860;4.286;2023-05-10T13:50:32;9.55;;;5.40;;
22737;SDS011;11536;50.860;4.286;2023-05-10T13:52:58;11.23;;;4.88;;
22737;SDS011;11536;50.860;4.286;2023-05-10T13:55:24;12.00;;;5.28;;
22737;SDS011;11536;50.860;4.286;2023-05-10T13:57:49;12.13;;;5.88;;
22737;SDS011;11536;50.860;4.286;2023-05-10T14:00:15;10.18;;;5.22;;
22737;SDS011;11536;50.860;4.286;2023-05-10T14:02:41;11.07;;;5.32;;
22737;SDS011;11536;50.860;4.286;2023-05-10T14:05:07;11.27;;;5.50;;
22737;SDS011;11536;50.860;4.286;2023-05-10T14:07:32;11.10;;;5.82;;
22737;SDS011;11536;50.860;4.286;2023-05-10T14:09:58;10.98;;;5.55;;
22737;SDS011;11536;50.860;4.286;2023-05-10T14:12:24;11.30;;;5.63;;
22737;SDS011;11536;50.860;4.286;2023-05-10T14:14:49;15.55;;;6.50;;
22737;SDS011;11536;50.860;4.286;2023-05-10T14:17:15;13.25;;;5.70;;
22737;SDS011;11536;50.860;4.286;2023-05-10T14:19:41;9.95;;;5.60;;
22737;SDS011;11536;50.860;4.286;2023-05-10T14:22:06;10.93;;;5.30;;
22737;SDS011;11536;50.860;4.286;2023-05-10T14:24:32;12.35;;;6.28;;
22737;SDS011;11536;50.860;4.286;2023-05-10T14:26:58;12.90;;;5.32;;
22737;SDS011;11536;50.860;4.286;2023-05-10T14:29:23;12.45;;;5.55;;
22737;SDS011;11536;50.860;4.286;2023-05-10T14:31:49;10.48;;;5.28;;
22737;SDS011;11536;50.860;4.286;2023-05-10T14:34:15;12.70;;;6.07;;
22737;SDS011;11536;50.860;4.286;2023-05-10T14:36:41;10.52;;;5.57;;
22737;SDS011;11536;50.860;4.286;2023-05-10T14:39:06;13.77;;;5.55;;
22737;SDS011;11536;50.860;4.286;2023-05-10T14:41:32;12.25;;;5.70;;
22737;SDS011;11536;50.860;4.286;2023-05-10T14:43:58;12.02;;;5.57;;
22737;SDS011;11536;50.860;4.286;2023-05-10T14:46:24;10.65;;;5.63;;
22737;SDS011;11536;50.860;4.286;2023-05-10T14:48:52;11.88;;;5.75;;
22737;SDS011;11536;50.860;4.286;2023-05-10T14:51:18;10.35;;;5.55;;
22737;SDS011;11536;50.860;4.286;2023-05-10T14:53:46;10.00;;;5.28;;
22737;SDS011;11536;50.860;4.286;2023-05-10T14:56:14;10.52;;;5.65;;
22737;SDS011;11536;50.860;4.286;2023-05-10T14:58:40;9.43;;;4.70;;
22737;SDS011;11536;50.860;4.286;2023-05-10T15:01:05;9.07;;;4.22;;
22737;SDS011;11536;50.860;4.286;2023-05-10T15:03:31;8.55;;;2.75;;
22737;SDS011;11536;50.860;4.286;2023-05-10T15:05:56;8.32;;;2.30;;
22737;SDS011;11536;50.860;4.286;2023-05-10T15:08:23;5.78;;;1.85;;
22737;SDS011;11536;50.860;4.286;2023-05-10T15:10:49;7.80;;;2.40;;
22737;SDS011;11536;50.860;4.286;2023-05-10T15:13:15;5.75;;;1.73;;
22737;SDS011;11536;50.860;4.286;2023-05-10T15:15:41;4.70;;;2.10;;
22737;SDS011;11536;50.860;4.286;2023-05-10T15:18:08;4.55;;;1.85;;
22737;SDS011;11536;50.860;4.286;2023-05-10T15:20:36;4.72;;;2.00;;
22737;SDS011;11536;50.860;4.286;2023-05-10T15:23:02;5.68;;;1.98;;
22737;SDS011;11536;50.860;4.286;2023-05-10T15:25:28;4.88;;;1.60;;